createdAt,value
2023-04-04T00:00:15.952Z,56.94
2023-04-04T00:03:13.168Z,57.01
2023-04-04T00:05:57.531Z,57.46
2023-04-04T00:08:21.976Z,57.49
2023-04-04T00:10:59.322Z,57.65
2023-04-04T00:13:33.635Z,58.09
2023-04-04T00:16:18.093Z,57.93
2023-04-04T00:19:02.433Z,58.01
2023-04-04T00:21:39.500Z,57.83
2023-04-04T00:24:06.690Z,58.10
2023-04-04T00:26:37.996Z,58.27
2023-04-04T00:29:13.412Z,58.43
2023-04-04T00:31:57.724Z,58.99
2023-04-04T00:34:42.712Z,58.83
2023-04-04T00:37:07.252Z,59.07
2023-04-04T00:39:31.744Z,59.33
2023-04-04T00:42:16.205Z,59.41
2023-04-04T00:44:51.952Z,59.61
2023-04-04T00:47:19.203Z,59.48
2023-04-04T00:50:03.854Z,59.85
2023-04-04T00:52:39.465Z,59.87
2023-04-04T00:55:17.648Z,60.27
2023-04-04T00:58:02.178Z,60.10
2023-04-04T01:00:36.006Z,60.18
2023-04-04T01:03:17.838Z,60.49
2023-04-04T01:05:52.188Z,60.83
2023-04-04T01:08:23.345Z,60.66
2023-04-04T01:11:07.381Z,60.79
2023-04-04T01:13:46.625Z,61.31
2023-04-04T01:16:30.597Z,61.17
2023-04-04T01:19:21.688Z,61.44
2023-04-04T01:22:08.382Z,61.29
2023-04-04T01:24:55.565Z,61.46
2023-04-04T01:27:29.523Z,61.75
2023-04-04T01:30:16.388Z,61.95
2023-04-04T01:32:51.525Z,62.15
2023-04-04T01:35:43.614Z,62.46
2023-04-04T01:38:24.904Z,62.41
2023-04-04T01:41:12.575Z,62.62
2023-04-04T01:43:56.861Z,62.76
2023-04-04T01:46:41.318Z,62.85
2023-04-04T01:49:25.174Z,63.05
2023-04-04T01:51:52.546Z,63.07
2023-04-04T01:54:36.765Z,62.92
2023-04-04T01:57:19.695Z,63.24
2023-04-04T01:59:47.183Z,63.59
2023-04-04T02:02:20.032Z,63.78
2023-04-04T02:05:04.650Z,63.70
2023-04-04T02:07:38.901Z,64.10
2023-04-04T02:10:22.862Z,64.05
2023-04-04T02:13:06.893Z,64.40
2023-04-04T02:15:51.878Z,64.29
2023-04-04T02:18:18.825Z,64.40
2023-04-04T02:21:02.982Z,64.47
2023-04-04T02:23:26.939Z,64.69
2023-04-04T02:26:11.080Z,64.95
2023-04-04T02:28:38.237Z,64.92
2023-04-04T02:31:16.339Z,64.84
2023-04-04T02:34:00.753Z,65.01
2023-04-04T02:36:45.310Z,65.53
2023-04-04T02:39:29.707Z,65.27
2023-04-04T02:42:13.865Z,65.45
2023-04-04T02:44:42.236Z,65.30
2023-04-04T02:47:25.414Z,65.25
2023-04-04T02:50:11.338Z,65.52
2023-04-04T02:52:45.805Z,65.87
2023-04-04T02:55:11.110Z,66.09
2023-04-04T02:57:55.130Z,66.30
2023-04-04T03:00:30.209Z,66.05
2023-04-04T03:03:14.560Z,66.35
2023-04-04T03:05:50.872Z,66.33
2023-04-04T03:08:35.156Z,66.13
2023-04-04T03:11:09.044Z,66.24
2023-04-04T03:13:43.569Z,66.58
2023-04-04T03:16:28.917Z,66.62
2023-04-04T03:18:56.870Z,66.80
2023-04-04T03:21:40.868Z,66.63
2023-04-04T03:24:25.250Z,66.56
2023-04-04T03:27:02.098Z,66.61
2023-04-04T03:29:46.647Z,67.00
2023-04-04T03:32:31.122Z,66.84
2023-04-04T03:35:15.975Z,66.85
2023-04-04T03:37:42.607Z,66.99
2023-04-04T03:40:09.438Z,67.07
2023-04-04T03:42:47.555Z,66.93
2023-04-04T03:45:35.189Z,66.92
2023-04-04T03:48:11.241Z,67.11
2023-04-04T03:50:38.539Z,67.47
2023-04-04T03:53:02.481Z,67.36
2023-04-04T03:55:34.544Z,67.33
2023-04-04T03:58:18.789Z,67.55
2023-04-04T04:01:03.261Z,67.48
2023-04-04T04:03:32.812Z,67.30
2023-04-04T04:06:09.115Z,67.75
2023-04-04T04:08:33.296Z,67.41
2023-04-04T04:11:17.548Z,67.38
2023-04-04T04:13:41.732Z,67.60
2023-04-04T04:16:25.861Z,67.70
2023-04-04T04:19:03.066Z,67.48
2023-04-04T04:21:47.800Z,67.65
2023-04-04T04:24:16.934Z,67.54
2023-04-04T04:27:01.278Z,67.44
2023-04-04T04:29:25.466Z,66.81
2023-04-04T04:32:10.243Z,66.32
2023-04-04T04:34:39.012Z,65.64
2023-04-04T04:37:06.886Z,64.66
2023-04-04T04:39:40.788Z,63.55
2023-04-04T04:42:15.449Z,61.92
2023-04-04T04:44:45.739Z,60.59
2023-04-04T04:47:12.070Z,59.34
2023-04-04T04:49:46.042Z,57.39
2023-04-04T04:52:11.002Z,56.18
2023-04-04T04:54:38.798Z,54.78
2023-04-04T04:57:02.565Z,53.23
2023-04-04T04:59:27.280Z,51.61
2023-04-04T05:01:51.454Z,50.14
2023-04-04T05:04:17.104Z,48.96
2023-04-04T05:06:51.632Z,47.54
2023-04-04T05:09:15.421Z,46.09
2023-04-04T05:11:39.110Z,44.82
2023-04-04T05:14:04.642Z,43.52
2023-04-04T05:16:32.788Z,42.15
2023-04-04T05:18:57.241Z,40.86
2023-04-04T05:21:21.154Z,39.65
2023-04-04T05:23:45.813Z,38.63
2023-04-04T05:26:10.499Z,37.73
2023-04-04T05:28:36.472Z,36.44
2023-04-04T05:31:01.632Z,35.40
2023-04-04T05:33:26.941Z,34.43
2023-04-04T05:36:17.025Z,33.80
2023-04-04T05:38:48.538Z,33.07
2023-04-04T05:41:12.960Z,32.20
2023-04-04T05:43:37.450Z,31.27
2023-04-04T05:46:05.526Z,29.83
2023-04-04T05:48:34.520Z,29.15
2023-04-04T05:50:58.966Z,29.26
2023-04-04T05:53:32.198Z,29.22
2023-04-04T05:55:58.301Z,28.72
2023-04-04T05:58:26.962Z,27.44
2023-04-04T06:00:52.519Z,27.48
2023-04-04T06:03:17.464Z,26.95
2023-04-04T06:05:44.176Z,26.73
2023-04-04T06:08:08.875Z,26.79
2023-04-04T06:10:32.435Z,25.95
2023-04-04T06:12:56.620Z,25.74
2023-04-04T06:15:20.367Z,25.45
2023-04-04T06:17:44.607Z,24.71
2023-04-04T06:20:10.789Z,24.55
2023-04-04T06:22:34.694Z,23.51
2023-04-04T06:24:59.548Z,24.31
2023-04-04T06:27:24.104Z,24.08
2023-04-04T06:29:48.599Z,24.24
2023-04-04T06:32:15.653Z,23.90
2023-04-04T06:34:40.420Z,23.53
2023-04-04T06:37:05.694Z,23.31
2023-04-04T06:39:35.368Z,23.62
2023-04-04T06:42:03.058Z,23.32
2023-04-04T06:44:29.973Z,22.51
2023-04-04T06:46:53.878Z,21.97
2023-04-04T06:49:17.576Z,22.23
2023-04-04T06:51:41.764Z,22.24
2023-04-04T06:54:05.739Z,21.47
2023-04-04T06:56:29.658Z,20.96
2023-04-04T06:58:53.408Z,20.72
2023-04-04T07:01:18.531Z,20.78
2023-04-04T07:03:44.036Z,20.03
2023-04-04T07:06:07.801Z,19.63
2023-04-04T07:08:36.211Z,19.78
2023-04-04T07:11:00.929Z,19.85
2023-04-04T07:13:24.619Z,19.10
2023-04-04T07:15:49.418Z,18.66
2023-04-04T07:18:13.099Z,18.42
2023-04-04T07:20:37.054Z,17.91
2023-04-04T07:23:01.093Z,17.65
2023-04-04T07:25:25.638Z,18.17
2023-04-04T07:27:50.438Z,18.06
2023-04-04T07:30:17.133Z,17.56
2023-04-04T07:32:41.099Z,17.74
2023-04-04T07:35:06.154Z,17.42
2023-04-04T07:37:29.813Z,18.25
2023-04-04T07:39:53.848Z,18.83
2023-04-04T07:42:22.416Z,18.65
2023-04-04T07:44:46.006Z,19.02
2023-04-04T07:47:10.902Z,19.42
2023-04-04T07:49:34.554Z,19.67
2023-04-04T07:51:58.471Z,20.35
2023-04-04T07:54:23.484Z,20.83
2023-04-04T07:56:47.559Z,21.05
2023-04-04T07:59:11.501Z,21.07
2023-04-04T08:01:36.574Z,21.58
2023-04-04T08:04:00.579Z,22.16
2023-04-04T08:06:24.797Z,22.15
2023-04-04T08:08:48.961Z,22.65
2023-04-04T08:11:12.978Z,23.79
2023-04-04T08:13:36.718Z,24.00
2023-04-04T08:16:00.882Z,23.95
2023-04-04T08:18:24.826Z,23.53
2023-04-04T08:20:48.844Z,23.23
2023-04-04T08:23:13.180Z,22.76
2023-04-04T08:25:37.413Z,22.02
2023-04-04T08:28:03.367Z,22.23
2023-04-04T08:30:28.013Z,22.43
2023-04-04T08:32:51.602Z,22.27
2023-04-04T08:35:15.537Z,22.48
2023-04-04T08:37:44.150Z,22.72
2023-04-04T08:40:10.133Z,22.36
2023-04-04T08:42:36.205Z,21.88
2023-04-04T08:45:03.977Z,22.22
2023-04-04T08:47:29.673Z,22.94
2023-04-04T08:49:54.510Z,23.19
2023-04-04T08:52:21.035Z,23.74
2023-04-04T08:54:45.824Z,24.13
2023-04-04T08:57:09.515Z,24.68
2023-04-04T08:59:34.475Z,25.33
2023-04-04T09:02:05.091Z,25.73
2023-04-04T09:04:30.741Z,26.68
2023-04-04T09:06:55.561Z,26.58
2023-04-04T09:09:26.973Z,25.97
2023-04-04T09:11:52.185Z,26.38
2023-04-04T09:14:16.340Z,27.02
2023-04-04T09:16:40.878Z,27.70
2023-04-04T09:19:04.844Z,27.46
2023-04-04T09:21:34.730Z,26.63
2023-04-04T09:24:02.431Z,26.56
2023-04-04T09:26:26.569Z,26.71
2023-04-04T09:28:59.300Z,26.64
2023-04-04T09:31:25.552Z,26.71
2023-04-04T09:33:50.483Z,27.28
2023-04-04T09:36:17.127Z,28.29
2023-04-04T09:38:48.405Z,28.95
2023-04-04T09:41:18.426Z,29.52
2023-04-04T09:43:46.705Z,29.43
2023-04-04T09:46:10.488Z,29.23
2023-04-04T09:48:37.170Z,28.87
2023-04-04T09:51:03.608Z,27.35
2023-04-04T09:53:27.958Z,26.67
2023-04-04T09:55:53.402Z,26.51
2023-04-04T09:58:18.759Z,26.78
2023-04-04T10:00:47.859Z,26.83
2023-04-04T10:03:16.413Z,27.41
2023-04-04T10:05:40.165Z,28.14
2023-04-04T10:08:15.778Z,28.64
2023-04-04T10:10:58.796Z,28.74
2023-04-04T10:13:47.453Z,28.85
2023-04-04T10:16:12.243Z,29.28
2023-04-04T10:18:37.121Z,29.97
2023-04-04T10:21:15.830Z,30.26
2023-04-04T10:23:42.566Z,30.88
2023-04-04T10:26:09.398Z,31.38
2023-04-04T10:28:54.642Z,31.40
2023-04-04T10:31:24.322Z,31.37
2023-04-04T10:34:07.423Z,31.88
2023-04-04T10:36:54.426Z,32.39
2023-04-04T10:39:26.021Z,32.48
2023-04-04T10:41:59.915Z,32.74
2023-04-04T10:44:45.957Z,32.98
2023-04-04T10:47:31.252Z,33.14
2023-04-04T10:49:58.915Z,33.14
2023-04-04T10:52:39.181Z,33.07
2023-04-04T10:55:08.674Z,33.35
2023-04-04T10:57:34.124Z,33.59
2023-04-04T11:00:05.082Z,33.83
2023-04-04T11:02:53.866Z,34.28
2023-04-04T11:05:23.190Z,34.37
2023-04-04T11:10:31.332Z,34.97
2023-04-04T11:13:17.050Z,35.00
2023-04-04T11:15:53.016Z,35.30
2023-04-04T11:18:48.561Z,35.60
2023-04-04T11:21:16.586Z,35.22
2023-04-04T11:24:16.607Z,34.94
2023-04-04T11:26:55.515Z,35.04
2023-04-04T11:29:52.979Z,34.94
2023-04-04T11:32:33.552Z,35.39
2023-04-04T11:34:58.547Z,36.18
2023-04-04T11:37:25.071Z,37.08
2023-04-04T11:39:56.939Z,37.64
2023-04-04T11:42:39.085Z,38.22
2023-04-04T11:45:27.118Z,38.51
2023-04-04T11:47:53.908Z,38.86
2023-04-04T11:50:20.349Z,39.00
2023-04-04T11:52:54.773Z,38.88
2023-04-04T11:55:23.461Z,39.05
2023-04-04T11:57:54.903Z,39.08
2023-04-04T12:00:31.657Z,38.92
2023-04-04T12:03:17.853Z,38.94
2023-04-04T12:05:46.404Z,38.68
2023-04-04T12:08:33.116Z,38.88
2023-04-04T12:11:06.942Z,39.12
2023-04-04T12:13:33.418Z,39.75
2023-04-04T12:16:19.691Z,39.65
2023-04-04T12:18:44.516Z,40.12
2023-04-04T12:21:18.016Z,40.54
2023-04-04T12:23:42.004Z,40.57
2023-04-04T12:26:29.214Z,40.96
2023-04-04T12:28:57.505Z,41.50
2023-04-04T12:31:24.718Z,41.34
2023-04-04T12:33:52.105Z,41.71
2023-04-04T12:36:16.556Z,42.15
2023-04-04T12:38:58.543Z,42.18
2023-04-04T12:41:22.740Z,42.36
2023-04-04T12:43:47.657Z,42.45
2023-04-04T12:46:12.190Z,42.46
2023-04-04T12:48:57.167Z,42.75
2023-04-04T12:51:33.083Z,42.56
2023-04-04T12:54:07.448Z,42.42
2023-04-04T12:56:56.686Z,42.01
2023-04-04T12:59:46.972Z,41.87
2023-04-04T13:02:31.949Z,41.61
2023-04-04T13:05:17.513Z,41.52
2023-04-04T13:08:07.636Z,41.39
2023-04-04T13:11:01.883Z,41.29
2023-04-04T13:16:30.368Z,41.26
2023-04-04T13:19:03.462Z,41.38
2023-04-04T13:21:47.606Z,41.55
2023-04-04T13:24:11.355Z,41.72
2023-04-04T13:26:35.471Z,41.58
2023-04-04T13:28:59.329Z,41.69
2023-04-04T13:31:24.165Z,41.74
2023-04-04T13:33:48.028Z,42.08
2023-04-04T13:36:13.827Z,41.61
2023-04-04T13:38:57.276Z,41.71
2023-04-04T13:41:29.964Z,41.72
2023-04-04T13:43:56.697Z,41.74
2023-04-04T13:46:20.642Z,41.53
2023-04-04T13:48:52.260Z,41.31
2023-04-04T13:51:27.462Z,41.19
2023-04-04T13:53:53.400Z,41.19
2023-04-04T13:56:20.734Z,42.80
2023-04-04T13:58:49.592Z,43.27
2023-04-04T14:01:13.945Z,43.89
2023-04-04T14:03:38.031Z,43.07
2023-04-04T14:08:48.683Z,42.58
2023-04-04T14:11:16.029Z,41.78
2023-04-04T14:13:42.247Z,41.10
2023-04-04T14:16:15.637Z,40.82
2023-04-04T14:18:59.925Z,40.49
2023-04-04T14:21:27.911Z,40.41
2023-04-04T14:24:04.248Z,40.12
2023-04-04T14:26:31.913Z,40.25
2023-04-04T14:29:00.366Z,40.12
2023-04-04T14:31:34.619Z,40.17
2023-04-04T14:34:18.730Z,40.20
2023-04-04T14:36:45.964Z,40.22
2023-04-04T14:39:22.336Z,40.44
2023-04-04T14:41:49.400Z,40.50
2023-04-04T14:44:22.125Z,40.69
2023-04-04T14:46:46.094Z,40.51
2023-04-04T14:49:30.332Z,40.16
2023-04-04T14:51:56.916Z,40.40
2023-04-04T14:54:21.060Z,40.68
2023-04-04T14:56:48.230Z,40.67
2023-04-04T14:59:12.403Z,40.85
2023-04-04T15:01:38.622Z,40.64
2023-04-04T15:04:06.937Z,40.79
2023-04-04T15:06:35.612Z,40.83
2023-04-04T15:08:59.424Z,40.67
2023-04-04T15:11:23.509Z,40.45
2023-04-04T15:13:49.933Z,40.18
2023-04-04T15:16:21.305Z,40.31
2023-04-04T15:18:55.702Z,40.43
2023-04-04T15:21:39.952Z,40.53
2023-04-04T15:24:07.227Z,40.68
2023-04-04T15:26:43.161Z,40.89
2023-04-04T15:29:09.703Z,41.04
2023-04-04T15:31:33.602Z,41.00
2023-04-04T15:34:00.622Z,41.14
2023-04-04T15:36:45.045Z,41.39
2023-04-04T15:39:10.688Z,41.38
2023-04-04T15:41:34.461Z,41.35
2023-04-04T15:44:08.983Z,41.45
2023-04-04T15:46:51.912Z,41.64
2023-04-04T15:49:36.050Z,41.58
2023-04-04T15:52:20.514Z,41.47
2023-04-04T15:54:47.758Z,41.70
2023-04-04T15:57:31.709Z,41.74
2023-04-04T15:59:58.558Z,41.74
2023-04-04T16:02:31.861Z,41.92
2023-04-04T16:04:56.025Z,41.90
2023-04-04T16:07:40.483Z,41.91
2023-04-04T16:10:24.520Z,42.19
2023-04-04T16:12:51.513Z,42.25
2023-04-04T16:15:15.647Z,42.48
2023-04-04T16:18:00.780Z,42.67
2023-04-04T16:20:44.768Z,42.77
2023-04-04T16:23:08.739Z,42.91
2023-04-04T16:25:54.527Z,43.01
2023-04-04T16:28:22.193Z,43.15
2023-04-04T16:30:46.105Z,43.25
2023-04-04T16:33:12.188Z,43.39
2023-04-04T16:35:45.586Z,43.34
2023-04-04T16:38:29.956Z,43.46
2023-04-04T16:41:08.464Z,43.61
2023-04-04T16:43:49.124Z,43.86
2023-04-04T16:46:33.396Z,43.45
2023-04-04T16:48:57.223Z,43.40
2023-04-04T16:51:21.225Z,43.47
2023-04-04T16:53:48.660Z,43.57
2023-04-04T16:56:12.775Z,43.43
2023-04-04T16:58:36.678Z,43.69
2023-04-04T17:01:04.175Z,43.79
2023-04-04T17:03:30.679Z,43.79
2023-04-04T17:06:01.161Z,43.99
2023-04-04T17:08:27.821Z,44.01
2023-04-04T17:10:54.024Z,44.09
2023-04-04T17:13:25.379Z,44.24
2023-04-04T17:15:52.419Z,44.26
2023-04-04T17:18:16.294Z,44.40
2023-04-04T17:20:43.140Z,44.54
2023-04-04T17:23:27.697Z,44.57
2023-04-04T17:25:51.461Z,44.58
2023-04-04T17:28:26.610Z,44.49
2023-04-04T17:30:53.612Z,44.62
2023-04-04T17:33:20.557Z,44.73
2023-04-04T17:35:47.959Z,44.79
2023-04-04T17:38:12.248Z,44.86
2023-04-04T17:40:36.212Z,44.85
2023-04-04T17:43:03.359Z,44.82
2023-04-04T17:45:28.974Z,44.58
2023-04-04T17:47:52.895Z,44.62
2023-04-04T17:50:18.214Z,44.72
2023-04-04T17:52:42.564Z,44.70
2023-04-04T17:55:08.812Z,44.62
2023-04-04T17:57:36.237Z,44.61
2023-04-04T18:00:03.789Z,44.58
2023-04-04T18:02:31.796Z,44.77
2023-04-04T18:04:57.276Z,44.75
2023-04-04T18:07:24.131Z,44.81
2023-04-04T18:09:50.960Z,44.79
2023-04-04T18:12:17.368Z,44.90
2023-04-04T18:15:03.277Z,44.96
2023-04-04T18:17:27.893Z,44.93
2023-04-04T18:19:54.029Z,44.95
2023-04-04T18:22:28.115Z,44.89
2023-04-04T18:24:52.149Z,45.02
2023-04-04T18:27:24.971Z,45.08
2023-04-04T18:29:53.211Z,45.06
2023-04-04T18:32:24.930Z,45.16
2023-04-04T18:34:51.654Z,45.02
2023-04-04T18:37:16.271Z,45.20
2023-04-04T18:39:40.107Z,45.15
2023-04-04T18:42:09.627Z,45.19
2023-04-04T18:44:47.721Z,45.15
2023-04-04T18:47:11.494Z,45.16
2023-04-04T18:49:35.786Z,45.28
2023-04-04T18:52:02.620Z,45.73
2023-04-04T18:54:29.975Z,45.41
2023-04-04T18:56:57.223Z,45.38
2023-04-04T18:59:22.244Z,45.47
2023-04-04T19:02:06.345Z,45.36
2023-04-04T19:04:32.805Z,45.41
2023-04-04T19:07:11.786Z,45.64
2023-04-04T19:09:38.093Z,46.00
2023-04-04T19:12:03.443Z,46.05
2023-04-04T19:14:27.707Z,46.28
2023-04-04T19:16:55.522Z,46.39
2023-04-04T19:19:20.862Z,46.75
2023-04-04T19:21:45.016Z,46.95
2023-04-04T19:24:12.261Z,46.97
2023-04-04T19:26:35.978Z,46.87
2023-04-04T19:29:00.080Z,47.03
2023-04-04T19:31:32.246Z,46.99
2023-04-04T19:33:56.368Z,47.20
2023-04-04T19:36:40.813Z,47.29
2023-04-04T19:39:09.524Z,47.46
2023-04-04T19:41:36.897Z,47.56
2023-04-04T19:44:01.493Z,47.85
2023-04-04T19:46:36.404Z,47.91
2023-04-04T19:49:02.777Z,48.17
2023-04-04T19:51:38.658Z,48.36
2023-04-04T19:54:05.595Z,48.51
2023-04-04T19:56:29.803Z,48.86
2023-04-04T19:59:45.991Z,49.30
2023-04-04T20:02:49.853Z,49.76
2023-04-04T20:05:57.076Z,49.82
2023-04-04T20:08:23.474Z,50.25
2023-04-04T20:10:47.506Z,50.38
2023-04-04T20:13:13.634Z,50.61
2023-04-04T20:18:42.843Z,51.11
2023-04-04T20:21:12.556Z,51.82
2023-04-04T20:23:46.059Z,51.62
2023-04-04T20:26:16.291Z,52.00
2023-04-04T20:28:45.165Z,52.11
2023-04-04T20:31:16.967Z,52.39
2023-04-04T20:33:56.056Z,52.52
2023-04-04T20:36:34.579Z,52.72
2023-04-04T20:39:02.063Z,53.02
2023-04-04T20:41:32.577Z,53.28
2023-04-04T20:44:00.631Z,53.46
2023-04-04T20:46:37.098Z,53.59
2023-04-04T20:49:08.862Z,53.74
2023-04-04T20:51:42.368Z,53.99
2023-04-04T20:54:12.634Z,54.08
2023-04-04T20:56:52.356Z,54.13
2023-04-04T20:59:34.579Z,54.48
2023-04-04T21:02:09.361Z,54.64
2023-04-04T21:04:37.375Z,54.85
2023-04-04T21:07:06.246Z,54.82
2023-04-04T21:09:36.547Z,54.92
2023-04-04T21:12:04.312Z,54.87
2023-04-04T21:14:39.920Z,55.05
2023-04-04T21:17:10.340Z,54.99
2023-04-04T21:19:37.593Z,55.07
2023-04-04T21:22:07.048Z,54.93
2023-04-04T21:24:37.103Z,55.09
2023-04-04T21:27:07.535Z,55.10
2023-04-04T21:29:37.808Z,55.10
2023-04-04T21:32:08.158Z,55.09
2023-04-04T21:34:36.502Z,55.17
2023-04-04T21:37:25.995Z,55.37
2023-04-04T21:40:03.610Z,55.50
2023-04-04T21:42:33.192Z,55.55
2023-04-04T21:45:00.385Z,55.74
2023-04-04T21:47:28.223Z,55.81
2023-04-04T21:49:55.771Z,56.05
2023-04-04T21:52:26.092Z,55.88
2023-04-04T21:54:53.246Z,56.04
2023-04-04T21:57:20.328Z,56.18
2023-04-04T21:59:47.378Z,56.25
2023-04-04T22:02:17.152Z,56.49
2023-04-04T22:04:47.867Z,56.56
2023-04-04T22:07:15.034Z,56.78
2023-04-04T22:09:46.591Z,57.06
2023-04-04T22:12:16.129Z,57.08
2023-04-04T22:14:52.788Z,57.14
2023-04-04T22:17:23.718Z,57.18
2023-04-04T22:19:59.951Z,57.20
2023-04-04T22:22:37.240Z,57.39
2023-04-04T22:25:14.746Z,57.55
2023-04-04T22:27:44.905Z,57.69
2023-04-04T22:30:16.218Z,57.76
2023-04-04T22:32:47.405Z,57.73
2023-04-04T22:35:15.171Z,57.83
2023-04-04T22:37:46.169Z,57.95
2023-04-04T22:40:17.532Z,58.06
2023-04-04T22:42:45.080Z,58.11
2023-04-04T22:45:16.984Z,58.45
2023-04-04T22:47:48.596Z,58.37
2023-04-04T22:50:27.359Z,58.43
2023-04-04T22:53:14.886Z,58.83
2023-04-04T22:55:42.535Z,58.69
2023-04-04T22:58:10.175Z,59.02
2023-04-04T23:00:37.534Z,59.18
2023-04-04T23:03:08.007Z,59.16
2023-04-04T23:05:37.767Z,59.33
2023-04-04T23:08:05.556Z,59.53
2023-04-04T23:10:35.863Z,59.51
2023-04-04T23:13:18.111Z,59.47
2023-04-04T23:15:47.718Z,59.81
2023-04-04T23:18:19.119Z,60.02
2023-04-04T23:21:07.569Z,60.01
2023-04-04T23:23:55.200Z,60.19
2023-04-04T23:26:33.102Z,60.30
2023-04-04T23:29:20.814Z,60.42
2023-04-04T23:31:51.267Z,60.81
2023-04-04T23:34:39.408Z,60.75
2023-04-04T23:37:07.724Z,60.66
2023-04-04T23:39:37.561Z,60.97
2023-04-04T23:42:14.985Z,61.05
2023-04-04T23:44:42.544Z,61.08
2023-04-04T23:47:10.004Z,61.32
2023-04-04T23:49:40.435Z,61.30
2023-04-04T23:52:09.478Z,61.53
2023-04-04T23:54:39.056Z,61.86
2023-04-04T23:57:07.024Z,61.68
2023-04-04T23:59:47.496Z,62.02
